createdAt,value
2018-08-13T00:01:28.826Z,24.74
2018-08-13T00:03:59.825Z,24.67
2018-08-13T00:06:30.577Z,24.61
2018-08-13T00:09:01.389Z,24.78
2018-08-13T00:11:31.977Z,24.83
2018-08-13T00:14:02.736Z,24.97
2018-08-13T00:16:33.340Z,24.79
2018-08-13T00:19:04.093Z,24.86
2018-08-13T00:21:34.738Z,24.73
2018-08-13T00:24:05.592Z,24.91
2018-08-13T00:26:36.216Z,24.92
2018-08-13T00:29:07.170Z,24.89
2018-08-13T00:31:37.785Z,24.92
2018-08-13T00:34:08.403Z,24.84
2018-08-13T00:36:39.073Z,24.88
2018-08-13T00:39:12.985Z,24.99
2018-08-13T00:41:43.689Z,24.84
2018-08-13T00:44:14.489Z,25.04
2018-08-13T00:46:45.241Z,24.92
2018-08-13T00:49:16.025Z,24.77
2018-08-13T00:51:46.665Z,24.60
2018-08-13T00:54:17.338Z,24.62
2018-08-13T00:56:48.072Z,24.60
2018-08-13T00:59:18.828Z,24.58
2018-08-13T01:01:49.418Z,24.48
2018-08-13T01:04:20.525Z,24.40
2018-08-13T01:06:51.201Z,24.40
2018-08-13T01:09:22.062Z,24.34
2018-08-13T01:11:52.684Z,24.52
2018-08-13T01:14:23.489Z,24.30
2018-08-13T01:16:54.317Z,23.84
2018-08-13T01:19:25.189Z,24.04
2018-08-13T01:21:55.954Z,23.62
2018-08-13T01:24:26.637Z,23.61
2018-08-13T01:26:57.293Z,23.29
2018-08-13T01:29:28.065Z,23.52
2018-08-13T01:31:58.764Z,22.65
2018-08-13T01:34:29.449Z,22.95
2018-08-13T01:37:00.122Z,22.95
2018-08-13T01:39:31.217Z,22.96
2018-08-13T01:42:01.953Z,23.31
2018-08-13T01:44:32.804Z,23.20
2018-08-13T01:47:03.477Z,23.51
2018-08-13T01:49:34.509Z,23.55
2018-08-13T01:52:05.029Z,23.32
2018-08-13T01:54:35.672Z,23.32
2018-08-13T01:57:06.345Z,23.10
2018-08-13T01:59:37.341Z,23.26
2018-08-13T02:02:08.121Z,23.26
2018-08-13T02:04:39.096Z,23.28
2018-08-13T02:07:09.736Z,23.13
2018-08-13T02:09:41.612Z,23.37
2018-08-13T02:12:13.192Z,23.33
2018-08-13T02:14:44.120Z,23.47
2018-08-13T02:17:14.659Z,23.48
2018-08-13T02:19:46.036Z,23.46
2018-08-13T02:22:16.632Z,23.52
2018-08-13T02:24:47.356Z,23.54
2018-08-13T02:27:17.980Z,23.37
2018-08-13T02:29:48.842Z,23.31
2018-08-13T02:32:19.544Z,23.25
2018-08-13T02:34:50.389Z,22.97
2018-08-13T02:37:21.090Z,22.87
2018-08-13T02:39:51.784Z,23.12
2018-08-13T02:42:22.445Z,23.00
2018-08-13T02:44:53.316Z,22.84
2018-08-13T02:47:23.944Z,22.95
2018-08-13T02:49:54.836Z,22.83
2018-08-13T02:52:25.505Z,22.87
2018-08-13T02:54:58.699Z,22.77
2018-08-13T02:57:29.276Z,22.70
2018-08-13T02:59:59.896Z,22.79
2018-08-13T03:02:30.525Z,22.87
2018-08-13T03:05:01.392Z,22.77
2018-08-13T03:07:31.998Z,22.82
2018-08-13T03:10:02.861Z,22.94
2018-08-13T03:12:33.501Z,22.75
2018-08-13T03:15:04.493Z,22.87
2018-08-13T03:17:35.088Z,22.67
2018-08-13T03:20:07.010Z,22.65
2018-08-13T03:22:37.757Z,22.44
2018-08-13T03:25:10.753Z,22.48
2018-08-13T03:27:41.404Z,22.48
2018-08-13T03:30:13.948Z,22.37
2018-08-13T03:32:44.617Z,22.54
2018-08-13T03:35:15.418Z,22.42
2018-08-13T03:37:46.033Z,22.33
2018-08-13T03:40:16.732Z,22.41
2018-08-13T03:42:47.360Z,22.36
2018-08-13T03:45:18.036Z,22.33
2018-08-13T03:47:48.755Z,22.20
2018-08-13T03:50:19.644Z,22.32
2018-08-13T03:52:50.265Z,22.35
2018-08-13T03:55:21.227Z,22.51
2018-08-13T03:57:52.021Z,22.52
2018-08-13T04:00:22.830Z,22.37
2018-08-13T04:02:53.412Z,22.55
2018-08-13T04:05:23.944Z,22.53
2018-08-13T04:07:54.727Z,22.50
2018-08-13T04:10:25.345Z,22.75
2018-08-13T04:12:55.916Z,22.71
2018-08-13T04:15:26.905Z,22.83
2018-08-13T04:17:57.549Z,23.24
2018-08-13T04:20:28.157Z,22.95
2018-08-13T04:22:58.878Z,23.32
2018-08-13T04:25:29.576Z,23.28
2018-08-13T04:28:00.173Z,23.49
2018-08-13T04:30:31.263Z,23.39
2018-08-13T04:33:03.076Z,23.59
2018-08-13T04:35:33.810Z,23.56
2018-08-13T04:38:04.524Z,23.61
2018-08-13T04:40:35.297Z,23.56
2018-08-13T04:43:06.022Z,24.12
2018-08-13T04:45:36.971Z,26.12
2018-08-13T04:48:07.739Z,25.84
2018-08-13T04:50:38.545Z,26.60
2018-08-13T04:53:09.100Z,26.42
2018-08-13T04:55:39.620Z,26.59
2018-08-13T04:58:10.384Z,26.52
2018-08-13T05:00:41.124Z,27.42
2018-08-13T05:03:11.887Z,27.10
2018-08-13T05:05:43.784Z,27.42
2018-08-13T05:08:14.456Z,27.40
2018-08-13T05:10:45.388Z,27.66
2018-08-13T05:13:16.150Z,27.47
2018-08-13T05:15:47.101Z,28.08
2018-08-13T05:18:17.834Z,27.30
2018-08-13T05:20:48.681Z,27.10
2018-08-13T05:23:19.136Z,27.45
2018-08-13T05:25:49.743Z,27.07
2018-08-13T05:28:20.357Z,27.70
2018-08-13T05:30:51.116Z,27.91
2018-08-13T05:33:21.960Z,29.01
2018-08-13T05:35:52.793Z,29.15
2018-08-13T05:38:23.483Z,28.95
2018-08-13T05:40:54.267Z,28.70
2018-08-13T05:43:24.944Z,28.68
2018-08-13T05:45:55.962Z,28.63
2018-08-13T05:48:27.505Z,28.69
2018-08-13T05:50:58.173Z,28.24
2018-08-13T05:53:29.074Z,28.61
2018-08-13T05:55:59.866Z,29.43
2018-08-13T05:58:30.482Z,29.51
2018-08-13T06:01:01.349Z,30.30
2018-08-13T06:03:32.360Z,30.82
2018-08-13T06:06:03.108Z,31.23
2018-08-13T06:08:33.756Z,29.69
2018-08-13T06:11:04.589Z,29.60
2018-08-13T06:13:35.247Z,29.56
2018-08-13T06:16:05.916Z,28.96
2018-08-13T06:18:36.561Z,29.46
2018-08-13T06:21:07.473Z,29.66
2018-08-13T06:23:38.069Z,30.02
2018-08-13T06:26:09.176Z,30.83
2018-08-13T06:28:39.896Z,30.74
2018-08-13T06:31:10.860Z,30.24
2018-08-13T06:33:41.624Z,30.55
2018-08-13T06:36:12.627Z,29.95
2018-08-13T06:38:43.288Z,30.80
2018-08-13T06:41:14.136Z,31.08
2018-08-13T06:43:44.905Z,30.69
2018-08-13T06:46:15.737Z,31.37
2018-08-13T06:48:46.360Z,31.68
2018-08-13T06:51:17.111Z,31.41
2018-08-13T06:53:47.778Z,31.82
2018-08-13T06:56:18.870Z,31.45
2018-08-13T06:58:49.572Z,31.79
2018-08-13T07:01:20.248Z,32.42
2018-08-13T07:03:51.038Z,32.30
2018-08-13T07:06:21.954Z,31.74
2018-08-13T07:08:52.693Z,32.00
2018-08-13T07:11:23.579Z,31.38
2018-08-13T07:13:55.936Z,32.12
2018-08-13T07:16:26.631Z,32.36
2018-08-13T07:18:57.353Z,32.62
2018-08-13T07:21:28.152Z,32.59
2018-08-13T07:23:58.833Z,33.46
2018-08-13T07:26:29.563Z,32.68
2018-08-13T07:29:00.322Z,32.75
2018-08-13T07:31:31.233Z,32.83
2018-08-13T07:34:01.946Z,33.76
2018-08-13T07:36:32.717Z,34.04
2018-08-13T07:39:03.771Z,33.75
2018-08-13T07:41:34.480Z,34.11
2018-08-13T07:44:05.945Z,34.22
2018-08-13T07:46:36.567Z,33.88
2018-08-13T07:49:07.370Z,34.38
2018-08-13T07:51:38.287Z,33.53
2018-08-13T07:54:08.797Z,35.00
2018-08-13T07:56:40.600Z,35.56
2018-08-13T07:59:11.534Z,35.47
2018-08-13T08:01:42.431Z,34.77
2018-08-13T08:04:13.233Z,34.55
2018-08-13T08:06:43.942Z,34.35
2018-08-13T08:09:14.551Z,34.70
2018-08-13T08:11:45.485Z,34.85
2018-08-13T08:14:16.150Z,33.79
2018-08-13T08:16:47.054Z,35.27
2018-08-13T08:19:17.765Z,35.37
2018-08-13T08:21:48.525Z,35.04
2018-08-13T08:24:19.117Z,34.37
2018-08-13T08:26:49.873Z,34.13
2018-08-13T08:29:20.881Z,34.98
2018-08-13T08:31:51.492Z,34.19
2018-08-13T08:34:22.202Z,35.20
2018-08-13T08:36:52.977Z,34.75
2018-08-13T08:39:23.722Z,34.80
2018-08-13T08:41:54.778Z,34.20
2018-08-13T08:44:25.461Z,34.87
2018-08-13T08:46:56.133Z,34.81
2018-08-13T08:49:26.769Z,35.14
2018-08-13T08:51:57.653Z,35.88
2018-08-13T08:54:28.317Z,34.45
2018-08-13T08:56:59.089Z,35.21
2018-08-13T08:59:29.769Z,35.17
2018-08-13T09:02:00.647Z,35.19
2018-08-13T09:04:31.161Z,36.21
2018-08-13T09:07:02.019Z,35.86
2018-08-13T09:09:32.781Z,36.04
2018-08-13T09:12:03.476Z,35.93
2018-08-13T09:14:34.201Z,36.15
2018-08-13T09:17:04.981Z,35.73
2018-08-13T09:19:52.030Z,36.59
2018-08-13T09:23:42.444Z,36.51
2018-08-13T09:26:29.145Z,36.11
2018-08-13T09:29:16.270Z,37.59
2018-08-13T09:32:31.484Z,36.23
2018-08-13T09:35:34.361Z,36.71
2018-08-13T09:38:05.205Z,37.17
2018-08-13T09:40:35.997Z,37.55
2018-08-13T09:43:06.801Z,36.22
2018-08-13T09:45:37.716Z,36.65
2018-08-13T09:48:08.757Z,36.73
2018-08-13T09:50:39.484Z,38.03
2018-08-13T09:53:09.949Z,37.74
2018-08-13T09:55:40.820Z,37.67
2018-08-13T09:58:12.153Z,36.72
2018-08-13T10:00:47.949Z,37.06
2018-08-13T10:03:18.356Z,35.76
2018-08-13T10:05:48.997Z,36.77
2018-08-13T10:08:19.620Z,37.05
2018-08-13T10:10:50.534Z,36.22
2018-08-13T10:13:21.333Z,37.06
2018-08-13T10:15:52.012Z,37.27
2018-08-13T10:18:22.688Z,37.59
2018-08-13T10:20:53.622Z,38.04
2018-08-13T10:23:24.265Z,37.85
2018-08-13T10:25:55.145Z,39.26
2018-08-13T10:28:25.846Z,37.28
2018-08-13T10:30:56.628Z,37.59
2018-08-13T10:33:27.270Z,37.59
2018-08-13T10:35:58.133Z,38.00
2018-08-13T10:38:28.716Z,38.70
2018-08-13T10:40:59.460Z,37.85
2018-08-13T10:43:30.241Z,37.49
2018-08-13T10:46:00.881Z,37.98
2018-08-13T10:48:31.552Z,36.40
2018-08-13T10:51:02.301Z,37.23
2018-08-13T10:53:33.129Z,36.37
2018-08-13T10:56:03.962Z,36.95
2018-08-13T10:58:34.745Z,37.46
2018-08-13T11:01:05.568Z,38.15
2018-08-13T11:03:36.381Z,38.80
2018-08-13T11:06:07.125Z,38.10
2018-08-13T11:08:37.633Z,38.51
2018-08-13T11:11:08.562Z,36.83
2018-08-13T11:13:39.140Z,37.19
2018-08-13T11:16:09.916Z,37.97
2018-08-13T11:18:40.613Z,37.60
2018-08-13T11:21:11.493Z,37.88
2018-08-13T11:23:42.169Z,37.23
2018-08-13T11:26:12.858Z,37.48
2018-08-13T11:28:43.316Z,37.70
2018-08-13T11:31:14.061Z,37.39
2018-08-13T11:33:44.676Z,38.11
2018-08-13T11:36:15.434Z,38.36
2018-08-13T11:38:46.173Z,37.75
2018-08-13T11:41:16.969Z,38.75
2018-08-13T11:43:47.581Z,37.82
2018-08-13T11:46:18.546Z,38.18
2018-08-13T11:48:49.237Z,37.46
2018-08-13T11:51:20.037Z,37.31
2018-08-13T11:53:50.616Z,38.76
2018-08-13T11:56:21.435Z,39.55
2018-08-13T11:58:52.020Z,38.55
2018-08-13T12:01:22.882Z,37.28
2018-08-13T12:03:54.213Z,38.13
2018-08-13T12:06:24.954Z,37.75
2018-08-13T12:08:55.632Z,38.45
2018-08-13T12:11:26.490Z,37.81
2018-08-13T12:13:57.173Z,39.06
2018-08-13T12:16:28.050Z,38.75
2018-08-13T12:18:58.740Z,38.51
2018-08-13T12:21:29.589Z,38.43
2018-08-13T12:24:00.133Z,38.57
2018-08-13T12:26:31.009Z,38.37
2018-08-13T12:29:01.696Z,38.94
2018-08-13T12:31:32.546Z,37.39
2018-08-13T12:34:03.302Z,37.85
2018-08-13T12:36:34.669Z,37.94
2018-08-13T12:39:09.022Z,38.16
2018-08-13T12:41:39.978Z,38.00
2018-08-13T12:44:10.801Z,37.63
2018-08-13T12:46:41.653Z,38.13
2018-08-13T12:49:12.391Z,37.62
2018-08-13T12:51:43.133Z,37.62
2018-08-13T12:54:13.765Z,38.03
2018-08-13T12:56:44.642Z,38.21
2018-08-13T12:59:15.348Z,37.68
2018-08-13T13:01:46.214Z,37.55
2018-08-13T13:04:16.844Z,37.68
2018-08-13T13:06:47.825Z,37.85
2018-08-13T13:09:18.462Z,37.94
2018-08-13T13:11:49.257Z,37.35
2018-08-13T13:14:20.018Z,37.94
2018-08-13T13:16:50.777Z,37.60
2018-08-13T13:19:21.458Z,37.91
2018-08-13T13:21:52.628Z,38.91
2018-08-13T13:24:23.197Z,38.04
2018-08-13T13:26:53.921Z,38.72
2018-08-13T13:29:24.576Z,38.54
2018-08-13T13:31:55.349Z,38.88
2018-08-13T13:34:26.001Z,37.43
2018-08-13T13:36:56.349Z,37.63
2018-08-13T13:39:27.024Z,37.21
2018-08-13T13:41:58.093Z,37.58
2018-08-13T13:44:28.352Z,37.34
2018-08-13T13:46:59.040Z,38.02
2018-08-13T13:49:29.734Z,37.13
2018-08-13T13:52:00.501Z,36.94
2018-08-13T13:54:30.993Z,37.24
2018-08-13T13:57:01.906Z,37.94
2018-08-13T13:59:32.278Z,37.81
2018-08-13T14:02:02.880Z,38.44
2018-08-13T14:04:33.162Z,38.05
2018-08-13T14:07:03.608Z,36.86
2018-08-13T14:09:34.192Z,37.91
2018-08-13T14:12:04.822Z,37.62
2018-08-13T14:14:36.017Z,37.00
2018-08-13T14:17:06.747Z,36.91
2018-08-13T14:19:37.462Z,37.10
2018-08-13T14:22:08.272Z,36.65
2018-08-13T14:24:39.072Z,36.42
2018-08-13T14:27:09.457Z,36.99
2018-08-13T14:29:40.118Z,36.91
2018-08-13T14:32:10.506Z,37.16
2018-08-13T14:34:41.357Z,37.01
2018-08-13T14:37:12.084Z,36.63
2018-08-13T14:39:42.990Z,36.31
2018-08-13T14:42:13.593Z,37.17
2018-08-13T14:44:44.453Z,37.00
2018-08-13T14:47:14.916Z,36.23
2018-08-13T14:49:45.705Z,37.03
2018-08-13T14:52:16.262Z,37.12
2018-08-13T14:54:47.169Z,36.88
2018-08-13T14:57:17.775Z,37.44
2018-08-13T14:59:48.593Z,36.67
2018-08-13T15:02:19.237Z,36.42
2018-08-13T15:04:49.909Z,36.40
2018-08-13T15:07:20.248Z,35.70
2018-08-13T15:09:50.938Z,35.96
2018-08-13T15:12:21.637Z,35.99
2018-08-13T15:14:52.421Z,36.24
2018-08-13T15:17:23.104Z,35.74
2018-08-13T15:19:53.784Z,35.56
2018-08-13T15:22:24.523Z,35.57
2018-08-13T15:24:55.192Z,35.85
2018-08-13T15:27:25.870Z,35.41
2018-08-13T15:29:56.562Z,35.54
2018-08-13T15:32:26.921Z,35.87
2018-08-13T15:34:57.381Z,36.68
2018-08-13T15:37:27.747Z,36.78
2018-08-13T15:39:58.208Z,36.58
2018-08-13T15:42:28.702Z,35.87
2018-08-13T15:44:59.617Z,35.15
2018-08-13T15:47:29.908Z,35.14
2018-08-13T15:50:00.238Z,35.38
2018-08-13T15:52:30.606Z,35.77
2018-08-13T15:55:01.129Z,35.63
2018-08-13T15:57:31.642Z,35.65
2018-08-13T16:00:02.034Z,36.02
2018-08-13T16:02:32.462Z,35.25
2018-08-13T16:05:02.886Z,35.54
2018-08-13T16:07:33.200Z,35.09
2018-08-13T16:10:04.099Z,35.47
2018-08-13T16:12:34.390Z,35.31
2018-08-13T16:15:05.709Z,34.99
2018-08-13T16:17:36.369Z,34.67
2018-08-13T16:20:12.304Z,34.82
2018-08-13T16:22:43.044Z,34.93
2018-08-13T16:25:13.617Z,34.69
2018-08-13T16:27:44.757Z,34.67
2018-08-13T16:30:23.097Z,34.59
2018-08-13T16:32:53.757Z,34.21
2018-08-13T16:35:25.409Z,34.13
2018-08-13T16:37:56.410Z,34.04
2018-08-13T16:40:27.137Z,33.93
2018-08-13T16:42:57.850Z,34.03
2018-08-13T16:45:28.598Z,33.93
2018-08-13T16:47:59.350Z,33.63
2018-08-13T16:50:33.505Z,33.82
2018-08-13T16:53:04.208Z,33.62
2018-08-13T16:55:35.197Z,33.45
2018-08-13T16:58:05.650Z,33.40
2018-08-13T17:00:36.309Z,33.17
2018-08-13T17:03:06.858Z,33.03
2018-08-13T17:05:37.280Z,32.99
2018-08-13T17:08:07.791Z,32.95
2018-08-13T17:10:38.184Z,32.69
2018-08-13T17:13:08.609Z,32.83
2018-08-13T17:15:39.194Z,32.57
2018-08-13T17:18:09.536Z,32.48
2018-08-13T17:20:42.273Z,32.42
2018-08-13T17:23:12.640Z,31.05
2018-08-13T17:25:43.241Z,30.46
2018-08-13T17:28:13.671Z,30.18
2018-08-13T17:30:44.161Z,30.23
2018-08-13T17:33:14.578Z,30.48
2018-08-13T17:35:45.209Z,30.55
2018-08-13T17:38:15.564Z,30.79
2018-08-13T17:40:46.031Z,30.96
2018-08-13T17:43:16.536Z,30.95
2018-08-13T17:45:46.932Z,30.79
2018-08-13T17:48:17.314Z,30.78
2018-08-13T17:50:47.729Z,30.86
2018-08-13T17:53:18.142Z,30.94
2018-08-13T17:55:48.964Z,30.68
2018-08-13T17:58:19.345Z,30.75
2018-08-13T18:00:50.022Z,30.65
2018-08-13T18:03:20.436Z,30.37
2018-08-13T18:05:50.865Z,30.47
2018-08-13T18:08:21.137Z,30.46
2018-08-13T18:10:51.597Z,30.37
2018-08-13T18:13:21.909Z,30.48
2018-08-13T18:15:52.167Z,30.39
2018-08-13T18:18:22.595Z,30.37
2018-08-13T18:20:52.892Z,30.28
2018-08-13T18:23:23.189Z,30.36
2018-08-13T18:25:53.973Z,30.49
2018-08-13T18:28:24.385Z,30.25
2018-08-13T18:30:55.081Z,30.15
2018-08-13T18:33:25.396Z,30.19
2018-08-13T18:35:55.805Z,29.84
2018-08-13T18:38:26.133Z,29.54
2018-08-13T18:40:56.413Z,29.47
2018-08-13T18:43:26.853Z,29.29
2018-08-13T18:45:57.165Z,29.25
2018-08-13T18:48:27.511Z,29.10
2018-08-13T18:50:57.809Z,28.91
2018-08-13T18:53:28.324Z,28.76
2018-08-13T18:55:58.714Z,28.75
2018-08-13T18:58:29.062Z,28.54
2018-08-13T19:00:59.853Z,28.23
2018-08-13T19:03:30.220Z,28.34
2018-08-13T19:06:00.581Z,28.48
2018-08-13T19:08:30.893Z,28.50
2018-08-13T19:11:01.563Z,28.40
2018-08-13T19:13:31.856Z,28.49
2018-08-13T19:16:02.399Z,28.38
2018-08-13T19:18:32.717Z,28.24
2018-08-13T19:21:02.965Z,28.00
2018-08-13T19:23:33.302Z,28.02
2018-08-13T19:26:03.769Z,28.14
2018-08-13T19:28:34.082Z,28.13
2018-08-13T19:31:04.429Z,28.06
2018-08-13T19:33:34.991Z,28.04
2018-08-13T19:36:05.375Z,27.75
2018-08-13T19:38:35.916Z,26.73
2018-08-13T19:41:06.329Z,26.63
2018-08-13T19:43:36.929Z,26.49
2018-08-13T19:46:07.925Z,26.55
2018-08-13T19:48:38.345Z,26.59
2018-08-13T19:51:08.665Z,26.50
2018-08-13T19:53:39.058Z,26.47
2018-08-13T19:56:09.941Z,26.14
2018-08-13T19:58:40.818Z,25.49
2018-08-13T20:01:11.307Z,25.52
2018-08-13T20:03:41.565Z,25.59
2018-08-13T20:06:11.945Z,25.79
2018-08-13T20:08:42.220Z,25.99
2018-08-13T20:11:12.582Z,25.68
2018-08-13T20:13:43.001Z,25.65
2018-08-13T20:16:13.598Z,25.81
2018-08-13T20:18:44.094Z,25.84
2018-08-13T20:21:14.575Z,25.77
2018-08-13T20:23:44.832Z,25.59
2018-08-13T20:26:15.181Z,25.62
2018-08-13T20:28:45.473Z,25.51
2018-08-13T20:31:15.821Z,25.54
2018-08-13T20:33:46.246Z,25.41
2018-08-13T20:36:16.897Z,25.47
2018-08-13T20:38:47.373Z,25.61
2018-08-13T20:41:17.612Z,25.84
2018-08-13T20:43:47.858Z,25.85
2018-08-13T20:46:18.364Z,25.82
2018-08-13T20:48:48.813Z,25.56
2018-08-13T20:51:19.206Z,25.52
2018-08-13T20:53:49.529Z,25.94
2018-08-13T20:56:19.879Z,26.27
2018-08-13T20:58:50.488Z,26.25
2018-08-13T21:01:20.823Z,26.21
2018-08-13T21:03:51.166Z,26.23
2018-08-13T21:06:21.636Z,26.32
2018-08-13T21:08:51.977Z,26.42
2018-08-13T21:11:22.522Z,26.41
2018-08-13T21:13:52.875Z,26.49
2018-08-13T21:16:23.569Z,26.51
2018-08-13T21:18:53.883Z,26.43
2018-08-13T21:21:24.345Z,26.55
2018-08-13T21:23:54.658Z,26.52
2018-08-13T21:26:25.072Z,26.37
2018-08-13T21:28:55.910Z,26.32
2018-08-13T21:31:26.383Z,26.01
2018-08-13T21:33:57.020Z,25.97
2018-08-13T21:36:27.372Z,25.87
2018-08-13T21:38:57.756Z,25.95
2018-08-13T21:41:28.066Z,26.01
2018-08-13T21:43:58.629Z,25.99
2018-08-13T21:46:28.956Z,25.74
2018-08-13T21:48:59.464Z,25.88
2018-08-13T21:51:29.865Z,25.86
2018-08-13T21:54:00.209Z,25.84
2018-08-13T21:56:30.549Z,25.91
2018-08-13T21:59:00.802Z,25.79
2018-08-13T22:01:36.277Z,25.63
2018-08-13T22:04:06.570Z,25.51
2018-08-13T22:06:36.881Z,25.41
2018-08-13T22:09:09.993Z,25.27
2018-08-13T22:11:40.463Z,25.17
2018-08-13T22:14:11.451Z,25.14
2018-08-13T22:16:41.841Z,24.99
2018-08-13T22:19:12.282Z,25.08
2018-08-13T22:21:42.594Z,24.96
2018-08-13T22:24:29.457Z,24.85
2018-08-13T22:26:59.708Z,24.90
2018-08-13T22:29:30.153Z,24.91
2018-08-13T22:32:00.462Z,24.84
2018-08-13T22:34:31.000Z,24.87
2018-08-13T22:37:01.435Z,24.83
2018-08-13T22:39:31.822Z,24.78
2018-08-13T22:42:02.193Z,24.70
2018-08-13T22:44:32.870Z,24.65
2018-08-13T22:47:03.369Z,24.59
2018-08-13T22:49:33.872Z,24.70
2018-08-13T22:52:04.379Z,24.69
2018-08-13T22:54:34.741Z,24.61
2018-08-13T22:57:05.173Z,24.57
2018-08-13T22:59:35.532Z,24.45
2018-08-13T23:02:05.975Z,24.58
2018-08-13T23:04:36.381Z,24.53
2018-08-13T23:07:07.152Z,24.49
2018-08-13T23:09:37.789Z,24.32
2018-08-13T23:12:10.692Z,24.46
2018-08-13T23:14:41.122Z,24.33
2018-08-13T23:17:11.452Z,24.58
2018-08-13T23:19:41.786Z,24.67
2018-08-13T23:22:21.157Z,24.53
2018-08-13T23:24:51.561Z,24.54
2018-08-13T23:27:21.828Z,24.28
2018-08-13T23:29:52.339Z,24.45
2018-08-13T23:32:22.677Z,24.28
2018-08-13T23:34:53.274Z,24.27
2018-08-13T23:37:23.600Z,24.27
2018-08-13T23:39:54.016Z,24.21
2018-08-13T23:42:24.361Z,24.33
2018-08-13T23:44:54.687Z,24.25
2018-08-13T23:47:25.021Z,24.19
2018-08-13T23:49:55.448Z,24.15
2018-08-13T23:52:26.137Z,23.99
2018-08-13T23:54:56.828Z,24.27
2018-08-13T23:57:27.244Z,24.20
2018-08-13T23:59:57.962Z,24.25
